Weather at Kalamazoo Battle Creek International Airport

Public forecast

Using degrees Fahrenheit for public forecast. Weather courtesy of forecast.io.

Current aviation weather report (METAR) for Kalamazoo Battle Creek International Airport

Retrieved 2020/10/22 22:53 UTC (20 minutes ago):

KAZO 222253Z 14004KT 9SM CLR 19/16 A2998 RMK AO2 SLP154 T01940156

Aviation forecast (TAF) for Kalamazoo Battle Creek International Airport

Retrieved 2020/10/22 18:42 UTC (5 hours ago):

TAF KAZO 221740Z 2218/2318 08009KT 3SM BR OVC004 FM222100 15006KT P6SM BKN040 FM222300 14006KT P6SM SCT040 FM230400 18014G22KT P6SM SCT040 WS020/24045KT FM231400 20012G24KT 4SM -SHRA BR VCTS OVC015CB FM231600 21012G20KT 2SM -SHRA BR VCTS OVC008CB